Terminal Aerodrome Forecast
Issued by NWS Grand Forks, ND

Current Version | Previous Version | Text Only | Print | Product List | Glossary On
Versions: 1 2 3 4 5 6 7 8 9 10 11 12 13 14 15 16 17
000
FTUS43 KFGF 231700 AAB
TAFGFK
TAF AMD
KGFK 231701Z 2317/2412 14018KT P6SM -RA OVC060
     FM231900 13020G30KT 4SM -RA BR OVC040
     FM240000 13018KT P6SM -RA OVC025=

USA.gov is the U.S. government's official web portal to all federal, state and local government web resources and services.